createdAt,value
2018-02-12T00:01:08.334Z,26.20
2018-02-12T00:03:39.165Z,26.20
2018-02-12T00:06:10.064Z,26.30
2018-02-12T00:08:41.815Z,26.60
2018-02-12T00:11:12.978Z,26.80
2018-02-12T00:13:44.691Z,26.90
2018-02-12T00:16:15.424Z,26.90
2018-02-12T00:18:46.378Z,26.80
2018-02-12T00:21:18.635Z,26.80
2018-02-12T00:23:49.223Z,26.80
2018-02-12T00:26:20.009Z,26.90
2018-02-12T00:28:50.922Z,27.30
2018-02-12T00:31:21.769Z,27.20
2018-02-12T00:33:52.334Z,27.30
2018-02-12T00:36:23.869Z,28.10
2018-02-12T00:38:54.813Z,28.10
2018-02-12T00:41:25.709Z,28.60
2018-02-12T00:43:56.138Z,29.00
2018-02-12T00:46:26.957Z,29.10
2018-02-12T00:48:57.830Z,29.50
2018-02-12T00:51:28.737Z,29.90
2018-02-12T00:53:59.253Z,30.10
2018-02-12T00:56:29.997Z,29.90
2018-02-12T00:59:00.770Z,30.30
2018-02-12T01:01:31.300Z,30.60
2018-02-12T01:04:02.186Z,30.40
2018-02-12T01:06:33.029Z,30.80
2018-02-12T01:09:04.810Z,31.10
2018-02-12T01:11:35.534Z,30.60
2018-02-12T01:14:06.437Z,29.70
2018-02-12T01:16:37.911Z,29.70
2018-02-12T01:19:09.898Z,29.70
2018-02-12T01:21:40.857Z,29.70
2018-02-12T01:24:11.469Z,29.20
2018-02-12T01:26:43.640Z,29.30
2018-02-12T01:29:14.401Z,29.30
2018-02-12T01:31:45.214Z,29.60
2018-02-12T01:34:16.022Z,29.20
2018-02-12T01:36:46.910Z,29.10
2018-02-12T01:39:17.595Z,29.20
2018-02-12T01:41:48.925Z,29.50
2018-02-12T01:44:19.678Z,29.60
2018-02-12T01:46:50.558Z,29.30
2018-02-12T01:49:21.684Z,29.80
2018-02-12T01:51:52.735Z,30.00
2018-02-12T01:54:24.663Z,30.30
2018-02-12T01:56:55.664Z,30.30
2018-02-12T01:59:27.576Z,30.10
2018-02-12T02:01:58.512Z,30.10
2018-02-12T02:04:30.039Z,30.10
2018-02-12T02:07:00.835Z,29.70
2018-02-12T02:09:31.441Z,29.40
2018-02-12T02:12:02.208Z,29.90
2018-02-12T02:14:33.238Z,30.00
2018-02-12T02:17:03.974Z,29.70
2018-02-12T02:19:34.490Z,30.50
2018-02-12T02:22:05.206Z,30.30
2018-02-12T02:24:36.985Z,30.20
2018-02-12T02:27:07.900Z,30.60
2018-02-12T02:29:38.642Z,30.70
2018-02-12T02:32:09.206Z,31.00
2018-02-12T02:34:39.998Z,30.90
2018-02-12T02:37:10.762Z,30.10
2018-02-12T02:39:41.430Z,30.30
2018-02-12T02:42:12.967Z,31.30
2018-02-12T02:44:46.026Z,31.50
2018-02-12T02:47:16.714Z,31.50
2018-02-12T02:49:47.214Z,31.20
2018-02-12T02:52:18.768Z,31.10
2018-02-12T02:54:50.401Z,31.30
2018-02-12T02:57:21.125Z,31.20
2018-02-12T02:59:51.601Z,32.00
2018-02-12T03:02:22.327Z,32.60
2018-02-12T03:04:53.954Z,31.90
2018-02-12T03:07:24.742Z,31.90
2018-02-12T03:09:55.280Z,31.10
2018-02-12T03:12:26.011Z,31.30
2018-02-12T03:14:56.817Z,31.30
2018-02-12T03:17:28.233Z,31.70
2018-02-12T03:19:59.796Z,31.10
2018-02-12T03:22:30.894Z,31.10
2018-02-12T03:25:01.390Z,31.10
2018-02-12T03:27:32.983Z,31.70
2018-02-12T03:30:03.906Z,31.60
2018-02-12T03:32:35.166Z,31.30
2018-02-12T03:35:06.044Z,31.50
2018-02-12T03:37:37.681Z,31.50
2018-02-12T03:40:08.623Z,31.50
2018-02-12T03:42:39.333Z,31.90
2018-02-12T03:45:10.194Z,32.00
2018-02-12T03:47:41.037Z,31.50
2018-02-12T03:50:11.971Z,31.40
2018-02-12T03:52:42.717Z,31.70
2018-02-12T03:55:13.550Z,31.60
2018-02-12T03:57:44.277Z,31.50
2018-02-12T04:00:15.216Z,31.90
2018-02-12T04:02:46.073Z,32.30
2018-02-12T04:05:17.786Z,31.70
2018-02-12T04:07:48.487Z,31.60
2018-02-12T04:10:19.045Z,31.70
2018-02-12T04:12:49.910Z,31.80
2018-02-12T04:15:20.858Z,31.80
2018-02-12T04:17:52.467Z,31.70
2018-02-12T04:20:23.357Z,31.60
2018-02-12T04:22:54.955Z,31.40
2018-02-12T04:25:25.854Z,31.40
2018-02-12T04:27:57.379Z,31.80
2018-02-12T04:30:28.186Z,31.80
2018-02-12T04:32:59.009Z,31.80
2018-02-12T04:35:29.495Z,31.70
2018-02-12T04:38:01.026Z,31.70
2018-02-12T04:40:31.880Z,31.50
2018-02-12T04:43:02.538Z,31.50
2018-02-12T04:45:34.314Z,32.10
2018-02-12T04:48:05.342Z,32.10
2018-02-12T04:50:36.127Z,31.90
2018-02-12T04:53:07.142Z,31.70
2018-02-12T04:55:38.135Z,31.70
2018-02-12T04:58:09.510Z,31.90
2018-02-12T05:00:40.165Z,31.90
2018-02-12T05:03:11.025Z,31.90
2018-02-12T05:05:41.821Z,31.80
2018-02-12T05:08:12.442Z,31.90
2018-02-12T05:10:44.318Z,31.60
2018-02-12T05:13:15.073Z,31.60
2018-02-12T05:15:45.862Z,31.70
2018-02-12T05:18:17.597Z,32.10
2018-02-12T05:20:48.100Z,32.10
2018-02-12T05:23:18.838Z,32.30
2018-02-12T05:25:50.470Z,31.90
2018-02-12T05:28:26.530Z,31.90
2018-02-12T05:30:57.405Z,32.10
2018-02-12T05:33:28.326Z,31.90
2018-02-12T05:35:59.377Z,31.90
2018-02-12T05:38:30.149Z,32.20
2018-02-12T05:41:01.867Z,32.30
2018-02-12T05:43:32.394Z,32.30
2018-02-12T05:46:03.094Z,32.50
2018-02-12T05:48:34.507Z,32.50
2018-02-12T05:51:05.774Z,32.40
2018-02-12T05:53:36.753Z,32.40
2018-02-12T05:56:07.510Z,32.20
2018-02-12T05:58:38.394Z,32.40
2018-02-12T06:01:09.178Z,32.10
2018-02-12T06:03:40.600Z,32.30
2018-02-12T06:06:11.557Z,32.90
2018-02-12T06:08:42.469Z,32.70
2018-02-12T06:11:13.678Z,32.40
2018-02-12T06:13:45.382Z,32.20
2018-02-12T06:16:15.866Z,32.20
2018-02-12T06:18:47.705Z,32.50
2018-02-12T06:21:18.514Z,32.50
2018-02-12T06:23:49.209Z,32.40
2018-02-12T06:26:19.968Z,32.60
2018-02-12T06:28:50.921Z,32.80
2018-02-12T06:31:21.793Z,32.80
2018-02-12T06:33:53.515Z,32.70
2018-02-12T06:36:24.755Z,32.70
2018-02-12T06:38:55.546Z,32.80
2018-02-12T06:41:27.134Z,32.70
2018-02-12T06:43:57.743Z,32.70
2018-02-12T06:46:28.582Z,32.70
2018-02-12T06:49:00.281Z,32.60
2018-02-12T06:51:31.083Z,32.60
2018-02-12T06:54:01.933Z,32.80
2018-02-12T06:56:32.846Z,33.00
2018-02-12T06:59:03.725Z,32.70
2018-02-12T07:01:34.670Z,32.80
2018-02-12T07:04:05.412Z,32.80
2018-02-12T07:06:36.958Z,32.80
2018-02-12T07:09:07.983Z,33.00
2018-02-12T07:11:39.461Z,33.20
2018-02-12T07:14:09.858Z,32.90
2018-02-12T07:16:40.762Z,32.80
2018-02-12T07:19:11.307Z,32.70
2018-02-12T07:21:42.270Z,32.90
2018-02-12T07:24:13.018Z,33.00
2018-02-12T07:26:43.835Z,33.20
2018-02-12T07:29:14.536Z,33.30
2018-02-12T07:31:45.294Z,33.20
2018-02-12T07:34:16.118Z,33.20
2018-02-12T07:36:46.951Z,33.30
2018-02-12T07:39:18.830Z,33.30
2018-02-12T07:41:49.531Z,33.20
2018-02-12T07:44:20.395Z,33.40
2018-02-12T07:46:51.033Z,33.50
2018-02-12T07:49:21.893Z,33.30
2018-02-12T07:51:52.613Z,33.30
2018-02-12T07:54:24.213Z,33.20
2018-02-12T07:56:55.716Z,33.20
2018-02-12T07:59:26.214Z,33.20
2018-02-12T08:01:56.959Z,33.20
2018-02-12T08:04:27.734Z,33.20
2018-02-12T08:06:58.670Z,33.20
2018-02-12T08:09:29.454Z,33.30
2018-02-12T08:12:00.244Z,33.20
2018-02-12T08:14:31.226Z,33.20
2018-02-12T08:17:01.897Z,33.30
2018-02-12T08:19:32.759Z,33.50
2018-02-12T08:22:04.217Z,33.40
2018-02-12T08:24:35.735Z,33.30
2018-02-12T08:27:06.461Z,33.30
2018-02-12T08:29:37.109Z,33.20
2018-02-12T08:32:08.590Z,33.10
2018-02-12T08:34:40.086Z,33.30
2018-02-12T08:37:11.052Z,33.30
2018-02-12T08:39:41.638Z,33.10
2018-02-12T08:42:12.605Z,33.20
2018-02-12T08:44:43.535Z,33.20
2018-02-12T08:47:14.301Z,33.30
2018-02-12T08:49:45.051Z,33.30
2018-02-12T08:52:16.598Z,33.20
2018-02-12T08:54:48.594Z,33.20
2018-02-12T08:57:19.261Z,33.20
2018-02-12T08:59:50.167Z,33.20
2018-02-12T09:02:20.862Z,33.20
2018-02-12T09:04:51.579Z,33.30
2018-02-12T09:07:22.426Z,33.40
2018-02-12T09:09:53.224Z,33.30
2018-02-12T09:12:24.316Z,33.20
2018-02-12T09:14:55.841Z,32.90
2018-02-12T09:17:26.578Z,32.90
2018-02-12T09:19:57.313Z,32.90
2018-02-12T09:22:28.107Z,33.00
2018-02-12T09:24:58.881Z,33.20
2018-02-12T09:27:30.467Z,33.20
2018-02-12T09:30:02.169Z,33.20
2018-02-12T09:32:32.915Z,33.20
2018-02-12T09:35:05.780Z,33.20
2018-02-12T09:37:36.550Z,33.20
2018-02-12T09:40:08.152Z,33.20
2018-02-12T09:42:38.904Z,33.20
2018-02-12T09:45:09.715Z,33.00
2018-02-12T09:47:41.217Z,32.90
2018-02-12T09:50:12.046Z,33.10
2018-02-12T09:52:42.917Z,33.10
2018-02-12T09:55:14.435Z,33.00
2018-02-12T09:57:45.954Z,33.00
2018-02-12T10:00:16.354Z,33.10
2018-02-12T10:02:47.711Z,33.00
2018-02-12T10:05:19.609Z,33.00
2018-02-12T10:07:50.558Z,33.00
2018-02-12T10:10:21.409Z,33.00
2018-02-12T10:12:52.255Z,32.90
2018-02-12T10:15:23.359Z,32.70
2018-02-12T10:17:54.662Z,32.70
2018-02-12T10:20:26.526Z,32.60
2018-02-12T10:22:58.419Z,32.60
2018-02-12T10:25:29.400Z,32.60
2018-02-12T10:28:00.243Z,32.60
2018-02-12T10:30:31.036Z,32.50
2018-02-12T10:33:01.695Z,32.40
2018-02-12T10:35:32.106Z,32.40
2018-02-12T10:38:03.080Z,32.40
2018-02-12T10:40:34.432Z,32.40
2018-02-12T10:43:05.151Z,32.40
2018-02-12T10:45:35.922Z,32.40
2018-02-12T10:48:07.535Z,32.30
2018-02-12T10:50:38.341Z,32.30
2018-02-12T10:53:09.437Z,32.20
2018-02-12T10:55:40.987Z,32.10
2018-02-12T10:58:12.645Z,32.10
2018-02-12T11:00:43.949Z,32.10
2018-02-12T11:03:14.706Z,32.10
2018-02-12T11:05:45.490Z,32.10
2018-02-12T11:08:16.474Z,32.00
2018-02-12T11:10:47.315Z,32.00
2018-02-12T11:13:18.042Z,32.00
2018-02-12T11:15:48.663Z,31.90
2018-02-12T11:18:19.456Z,31.90
2018-02-12T11:20:50.976Z,31.80
2018-02-12T11:23:21.585Z,31.80
2018-02-12T11:25:52.433Z,31.80
2018-02-12T11:28:23.597Z,31.80
2018-02-12T11:30:54.995Z,31.80
2018-02-12T11:33:26.683Z,31.70
2018-02-12T11:35:57.386Z,31.70
2018-02-12T11:38:28.421Z,31.60
2018-02-12T11:40:59.365Z,31.50
2018-02-12T11:43:30.226Z,31.40
2018-02-12T11:46:01.224Z,31.40
2018-02-12T11:48:31.903Z,31.40
2018-02-12T11:51:02.637Z,31.30
2018-02-12T11:53:33.502Z,31.20
2018-02-12T11:56:04.481Z,31.30
2018-02-12T11:58:35.042Z,31.30
2018-02-12T12:01:05.874Z,31.30
2018-02-12T12:03:37.025Z,31.30
2018-02-12T12:06:07.758Z,31.30
2018-02-12T12:08:39.657Z,31.30
2018-02-12T12:11:11.362Z,31.00
2018-02-12T12:13:42.233Z,30.90
2018-02-12T12:16:12.938Z,30.70
2018-02-12T12:18:43.716Z,30.60
2018-02-12T12:21:15.362Z,30.90
2018-02-12T12:23:46.217Z,30.90
2018-02-12T12:26:17.906Z,30.90
2018-02-12T12:28:48.860Z,30.90
2018-02-12T12:31:19.609Z,31.00
2018-02-12T12:33:50.430Z,30.90
2018-02-12T12:36:21.437Z,30.90
2018-02-12T12:38:52.233Z,30.90
2018-02-12T12:41:23.524Z,30.80
2018-02-12T12:43:54.233Z,30.90
2018-02-12T12:46:25.897Z,30.80
2018-02-12T12:48:57.646Z,30.70
2018-02-12T12:51:29.227Z,30.70
2018-02-12T12:54:01.122Z,30.70
2018-02-12T12:56:32.205Z,30.70
2018-02-12T12:59:04.305Z,30.70
2018-02-12T13:01:35.286Z,30.70
2018-02-12T13:04:06.066Z,30.70
2018-02-12T13:06:36.932Z,30.70
2018-02-12T13:09:07.685Z,30.50
2018-02-12T13:11:38.521Z,30.60
2018-02-12T13:14:09.511Z,30.50
2018-02-12T13:16:40.319Z,30.40
2018-02-12T13:19:12.957Z,30.50
2018-02-12T13:21:43.817Z,30.40
2018-02-12T13:24:14.629Z,30.20
2018-02-12T13:26:45.474Z,30.20
2018-02-12T13:29:16.377Z,30.40
2018-02-12T13:31:47.496Z,30.40
2018-02-12T13:34:18.507Z,30.40
2018-02-12T13:36:49.846Z,30.10
2018-02-12T13:39:20.581Z,30.30
2018-02-12T13:41:51.786Z,30.20
2018-02-12T13:44:22.831Z,30.30
2018-02-12T13:46:53.921Z,30.30
2018-02-12T13:49:25.685Z,30.20
2018-02-12T13:51:57.199Z,30.40
2018-02-12T13:54:28.247Z,30.40
2018-02-12T13:56:59.048Z,30.20
2018-02-12T13:59:30.019Z,30.30
2018-02-12T14:02:00.567Z,30.20
2018-02-12T14:04:31.603Z,30.10
2018-02-12T14:07:03.577Z,30.00
2018-02-12T14:09:34.828Z,30.10
2018-02-12T14:12:06.277Z,30.20
2018-02-12T14:14:37.190Z,30.10
2018-02-12T14:17:08.302Z,29.90
2018-02-12T14:19:39.009Z,30.00
2018-02-12T14:22:09.730Z,30.00
2018-02-12T14:24:40.871Z,30.10
2018-02-12T14:27:11.891Z,29.90
2018-02-12T14:29:43.095Z,29.90
2018-02-12T14:32:14.115Z,30.00
2018-02-12T14:34:45.733Z,29.90
2018-02-12T14:37:16.400Z,29.90
2018-02-12T14:39:48.076Z,29.80
2018-02-12T14:42:19.671Z,29.80
2018-02-12T14:44:50.503Z,29.90
2018-02-12T14:47:21.743Z,29.80
2018-02-12T14:49:52.886Z,29.90
2018-02-12T14:52:23.838Z,29.90
2018-02-12T14:54:55.005Z,29.80
2018-02-12T14:57:25.845Z,29.50
2018-02-12T14:59:56.634Z,29.60
2018-02-12T15:02:27.587Z,29.60
2018-02-12T15:04:58.641Z,29.50
2018-02-12T15:07:29.569Z,29.60
2018-02-12T15:10:00.626Z,29.60
2018-02-12T15:12:32.369Z,29.60
2018-02-12T15:15:03.127Z,29.60
2018-02-12T15:17:34.703Z,29.60
2018-02-12T15:20:07.631Z,29.50
2018-02-12T15:22:38.742Z,29.50
2018-02-12T15:25:10.937Z,29.20
2018-02-12T15:27:42.404Z,29.20
2018-02-12T15:30:13.265Z,29.20
2018-02-12T15:32:44.406Z,29.10
2018-02-12T15:35:15.431Z,29.00
2018-02-12T15:37:46.558Z,28.80
2018-02-12T15:40:17.741Z,29.20
2018-02-12T15:42:50.958Z,29.50
2018-02-12T15:45:22.856Z,29.50
2018-02-12T15:47:53.855Z,29.40
2018-02-12T15:50:25.604Z,29.00
2018-02-12T15:52:57.493Z,28.60
2018-02-12T15:55:28.870Z,28.60
2018-02-12T15:57:59.666Z,28.40
2018-02-12T16:00:31.317Z,28.10
2018-02-12T16:03:03.311Z,28.00
2018-02-12T16:05:34.654Z,28.00
2018-02-12T16:08:05.630Z,28.10
2018-02-12T16:10:37.404Z,28.20
2018-02-12T16:13:09.192Z,28.20
2018-02-12T16:15:39.973Z,28.20
2018-02-12T16:18:10.824Z,28.00
2018-02-12T16:20:41.771Z,28.00
2018-02-12T16:23:12.746Z,27.80
2018-02-12T16:25:43.613Z,27.80
2018-02-12T16:28:14.773Z,27.90
2018-02-12T16:30:45.489Z,27.90
2018-02-12T16:33:16.290Z,27.90
2018-02-12T16:35:47.011Z,28.00
2018-02-12T16:38:18.714Z,27.90
2018-02-12T16:40:49.555Z,27.90
2018-02-12T16:43:20.477Z,27.90
2018-02-12T16:45:51.347Z,27.90
2018-02-12T16:48:22.109Z,28.00
2018-02-12T16:50:53.639Z,28.10
2018-02-12T16:53:24.482Z,28.10
2018-02-12T16:55:55.286Z,28.10
2018-02-12T16:58:26.213Z,28.00
2018-02-12T17:00:56.958Z,28.00
2018-02-12T17:03:27.887Z,28.00
2018-02-12T17:05:58.661Z,28.00
2018-02-12T17:08:29.509Z,28.00
2018-02-12T17:11:00.931Z,27.90
2018-02-12T17:13:31.845Z,27.90
2018-02-12T17:16:02.710Z,27.90
2018-02-12T17:18:33.554Z,27.90
2018-02-12T17:21:04.162Z,27.90
2018-02-12T17:23:35.091Z,27.90
2018-02-12T17:26:05.846Z,27.90
2018-02-12T17:28:36.723Z,27.80
2018-02-12T17:31:08.210Z,27.70
2018-02-12T17:33:39.217Z,27.70
2018-02-12T17:36:11.668Z,27.70
2018-02-12T17:38:42.487Z,27.70
2018-02-12T17:41:13.325Z,27.80
2018-02-12T17:43:44.220Z,27.80
2018-02-12T17:46:15.137Z,27.90
2018-02-12T17:48:46.766Z,27.70
2018-02-12T17:51:17.605Z,27.70
2018-02-12T17:53:48.563Z,27.50
2018-02-12T17:56:20.297Z,27.40
2018-02-12T17:58:51.930Z,27.50
2018-02-12T18:01:22.902Z,27.50
2018-02-12T18:03:54.553Z,27.60
2018-02-12T18:06:26.210Z,27.60
2018-02-12T18:08:56.995Z,27.60
2018-02-12T18:11:27.806Z,27.50
2018-02-12T18:13:59.992Z,27.40
2018-02-12T18:16:30.902Z,27.40
2018-02-12T18:19:02.544Z,27.50
2018-02-12T18:21:33.352Z,27.40
2018-02-12T18:24:04.246Z,27.40
2018-02-12T18:26:35.153Z,27.30
2018-02-12T18:29:06.073Z,27.20
2018-02-12T18:31:37.006Z,27.20
2018-02-12T18:34:07.857Z,26.90
2018-02-12T18:36:38.638Z,26.70
2018-02-12T18:39:09.149Z,26.70
2018-02-12T18:41:40.765Z,26.60
2018-02-12T18:44:11.466Z,26.60
2018-02-12T18:46:42.160Z,26.80
2018-02-12T18:49:13.842Z,26.60
2018-02-12T18:51:44.578Z,26.60
2018-02-12T18:54:15.285Z,26.50
2018-02-12T18:56:46.890Z,26.30
2018-02-12T18:59:17.514Z,26.30
2018-02-12T19:01:48.717Z,26.10
2018-02-12T19:04:20.269Z,26.30
2018-02-12T19:06:51.822Z,26.40
2018-02-12T19:09:23.313Z,26.40
2018-02-12T19:11:54.142Z,26.40
2018-02-12T19:14:24.798Z,26.50
2018-02-12T19:16:55.722Z,26.50
2018-02-12T19:19:26.553Z,26.50
2018-02-12T19:21:57.285Z,26.30
2018-02-12T19:24:28.252Z,26.10
2018-02-12T19:26:59.231Z,26.20
2018-02-12T19:29:30.994Z,26.00
2018-02-12T19:32:02.565Z,25.90
2018-02-12T19:34:33.206Z,25.90
2018-02-12T19:37:03.863Z,26.20
2018-02-12T19:39:34.702Z,26.40
2018-02-12T19:42:05.794Z,26.30
2018-02-12T19:44:37.437Z,26.20
2018-02-12T19:47:08.889Z,26.20
2018-02-12T19:49:40.546Z,26.00
2018-02-12T19:52:12.194Z,25.90
2018-02-12T19:54:43.934Z,26.00
2018-02-12T19:57:15.578Z,26.30
2018-02-12T19:59:46.469Z,26.30
2018-02-12T20:02:17.646Z,26.10
2018-02-12T20:04:48.599Z,25.90
2018-02-12T20:07:19.530Z,26.00
2018-02-12T20:09:50.250Z,26.00
2018-02-12T20:12:21.106Z,25.70
2018-02-12T20:14:51.912Z,26.00
2018-02-12T20:17:22.747Z,25.80
2018-02-12T20:19:53.359Z,25.60
2018-02-12T20:22:24.081Z,25.60
2018-02-12T20:24:55.654Z,25.80
2018-02-12T20:27:26.574Z,25.80
2018-02-12T20:29:58.201Z,25.80
2018-02-12T20:32:29.822Z,25.90
2018-02-12T20:35:00.686Z,26.00
2018-02-12T20:37:31.608Z,25.90
2018-02-12T20:40:02.428Z,25.80
2018-02-12T20:42:33.837Z,25.80
2018-02-12T20:45:05.442Z,25.90
2018-02-12T20:47:36.445Z,25.90
2018-02-12T20:50:07.824Z,25.50
2018-02-12T20:52:38.528Z,25.50
2018-02-12T20:55:10.089Z,25.40
2018-02-12T20:57:40.934Z,25.40
2018-02-12T21:00:13.089Z,25.60
2018-02-12T21:02:43.987Z,25.70
2018-02-12T21:05:14.794Z,25.70
2018-02-12T21:07:45.450Z,25.70
2018-02-12T21:10:16.262Z,25.60
2018-02-12T21:12:47.129Z,25.60
2018-02-12T21:15:17.930Z,25.80
2018-02-12T21:17:48.706Z,25.80
2018-02-12T21:20:19.506Z,25.80
2018-02-12T21:22:50.397Z,25.80
2018-02-12T21:25:21.934Z,25.50
2018-02-12T21:27:52.834Z,25.50
2018-02-12T21:30:23.525Z,25.40
2018-02-12T21:32:55.414Z,25.10
2018-02-12T21:35:26.694Z,25.10
2018-02-12T21:37:57.529Z,25.10
2018-02-12T21:40:28.242Z,25.20
2018-02-12T21:42:59.063Z,25.30
2018-02-12T21:45:29.794Z,25.30
2018-02-12T21:48:00.550Z,25.30
2018-02-12T21:50:31.042Z,25.30
2018-02-12T21:53:02.798Z,25.20
2018-02-12T21:55:33.577Z,25.20
2018-02-12T21:58:04.541Z,25.40
2018-02-12T22:00:35.599Z,25.40
2018-02-12T22:03:07.237Z,25.20
2018-02-12T22:05:38.045Z,25.10
2018-02-12T22:08:08.865Z,25.00
2018-02-12T22:10:39.684Z,25.10
2018-02-12T22:13:10.505Z,25.30
2018-02-12T22:15:42.121Z,25.40
2018-02-12T22:18:12.921Z,25.40
2018-02-12T22:20:43.928Z,25.60
2018-02-12T22:23:15.752Z,25.60
2018-02-12T22:25:46.321Z,25.50
2018-02-12T22:28:18.063Z,25.40
2018-02-12T22:30:48.846Z,25.40
2018-02-12T22:33:19.744Z,25.40
2018-02-12T22:35:52.354Z,25.60
2018-02-12T22:38:23.162Z,25.60
2018-02-12T22:40:54.791Z,25.80
2018-02-12T22:43:25.742Z,25.80
2018-02-12T22:45:56.525Z,25.70
2018-02-12T22:48:27.442Z,25.40
2018-02-12T22:50:59.193Z,25.60
2018-02-12T22:53:31.453Z,25.70
2018-02-12T22:56:02.926Z,25.60
2018-02-12T22:58:33.685Z,25.50
2018-02-12T23:01:04.978Z,25.40
2018-02-12T23:03:35.886Z,25.40
2018-02-12T23:06:07.466Z,25.50
2018-02-12T23:08:38.030Z,25.50
2018-02-12T23:11:08.575Z,25.70
2018-02-12T23:13:39.245Z,25.60
2018-02-12T23:16:09.927Z,25.60
2018-02-12T23:18:40.709Z,25.60
2018-02-12T23:21:11.483Z,25.60
2018-02-12T23:23:43.110Z,25.70
2018-02-12T23:26:14.045Z,25.70
2018-02-12T23:28:44.851Z,25.70
2018-02-12T23:31:15.641Z,25.50
2018-02-12T23:33:47.261Z,25.60
2018-02-12T23:36:18.177Z,25.60
2018-02-12T23:38:49.026Z,25.60
2018-02-12T23:41:20.086Z,25.40
2018-02-12T23:43:51.897Z,25.30
2018-02-12T23:46:22.798Z,25.30
2018-02-12T23:48:53.469Z,26.00
2018-02-12T23:51:24.218Z,26.30
2018-02-12T23:53:54.539Z,26.60
2018-02-12T23:56:25.305Z,26.70
2018-02-12T23:58:55.758Z,26.40
